sensor_id;sensor_type;location;lat;lon;timestamp;temperature;humidity
29547;DHT22;40782;47.264;11.330;2022-12-13T00:00:44;-7.00;99.90
29547;DHT22;40782;47.264;11.330;2022-12-13T00:03:11;-7.00;99.90
29547;DHT22;40782;47.264;11.330;2022-12-13T00:05:42;-7.10;99.90
29547;DHT22;40782;47.264;11.330;2022-12-13T00:08:09;-7.40;99.90
29547;DHT22;40782;47.264;11.330;2022-12-13T00:10:36;-7.50;99.90
29547;DHT22;40782;47.264;11.330;2022-12-13T00:13:05;-7.50;99.90
29547;DHT22;40782;47.264;11.330;2022-12-13T00:15:32;-7.60;99.90
29547;DHT22;40782;47.264;11.330;2022-12-13T00:17:59;-7.70;99.90
29547;DHT22;40782;47.264;11.330;2022-12-13T00:20:27;-7.60;99.90
29547;DHT22;40782;47.264;11.330;2022-12-13T00:22:54;-7.60;99.90
29547;DHT22;40782;47.264;11.330;2022-12-13T00:25:22;-7.50;99.90
29547;DHT22;40782;47.264;11.330;2022-12-13T00:27:49;-7.50;99.90
29547;DHT22;40782;47.264;11.330;2022-12-13T00:30:18;-7.50;99.90
29547;DHT22;40782;47.264;11.330;2022-12-13T00:32:45;-7.30;99.90
29547;DHT22;40782;47.264;11.330;2022-12-13T00:35:12;-7.30;99.90
29547;DHT22;40782;47.264;11.330;2022-12-13T00:37:39;-7.30;99.90
29547;DHT22;40782;47.264;11.330;2022-12-13T00:40:07;-7.30;99.90
29547;DHT22;40782;47.264;11.330;2022-12-13T00:42:34;-7.30;99.90
29547;DHT22;40782;47.264;11.330;2022-12-13T00:45:02;-7.40;99.90
29547;DHT22;40782;47.264;11.330;2022-12-13T00:47:30;-7.40;99.90
29547;DHT22;40782;47.264;11.330;2022-12-13T00:49:58;-7.30;99.90
29547;DHT22;40782;47.264;11.330;2022-12-13T00:52:25;-7.30;99.90
29547;DHT22;40782;47.264;11.330;2022-12-13T00:54:52;-7.40;99.90
29547;DHT22;40782;47.264;11.330;2022-12-13T00:57:19;-7.50;99.90
29547;DHT22;40782;47.264;11.330;2022-12-13T00:59:47;-7.50;99.90
29547;DHT22;40782;47.264;11.330;2022-12-13T01:02:14;-7.40;99.90
29547;DHT22;40782;47.264;11.330;2022-12-13T01:04:43;-7.50;99.90
29547;DHT22;40782;47.264;11.330;2022-12-13T01:07:10;-7.70;99.90
29547;DHT22;40782;47.264;11.330;2022-12-13T01:09:37;-8.00;99.90
29547;DHT22;40782;47.264;11.330;2022-12-13T01:12:05;-8.00;99.90
29547;DHT22;40782;47.264;11.330;2022-12-13T01:14:34;-8.00;99.90
29547;DHT22;40782;47.264;11.330;2022-12-13T01:17:01;-8.00;99.90
29547;DHT22;40782;47.264;11.330;2022-12-13T01:19:28;-8.10;99.90
29547;DHT22;40782;47.264;11.330;2022-12-13T01:21:58;-8.00;99.90
29547;DHT22;40782;47.264;11.330;2022-12-13T01:24:26;-7.80;99.90
29547;DHT22;40782;47.264;11.330;2022-12-13T01:26:53;-7.70;99.90
29547;DHT22;40782;47.264;11.330;2022-12-13T01:29:21;-7.60;99.90
29547;DHT22;40782;47.264;11.330;2022-12-13T01:31:49;-7.50;99.90
29547;DHT22;40782;47.264;11.330;2022-12-13T01:34:18;-7.60;99.90
29547;DHT22;40782;47.264;11.330;2022-12-13T01:36:47;-7.50;99.90
29547;DHT22;40782;47.264;11.330;2022-12-13T01:39:17;-7.40;99.90
29547;DHT22;40782;47.264;11.330;2022-12-13T01:41:47;-7.40;99.90
29547;DHT22;40782;47.264;11.330;2022-12-13T01:47:23;-7.40;99.90
29547;DHT22;40782;47.264;11.330;2022-12-13T01:49:56;-7.50;99.90
29547;DHT22;40782;47.264;11.330;2022-12-13T01:52:24;-7.60;99.90
29547;DHT22;40782;47.264;11.330;2022-12-13T01:54:54;-7.70;99.90
29547;DHT22;40782;47.264;11.330;2022-12-13T01:57:22;-8.00;99.90
29547;DHT22;40782;47.264;11.330;2022-12-13T01:59:50;-8.00;99.90
29547;DHT22;40782;47.264;11.330;2022-12-13T02:02:18;-8.10;99.90
29547;DHT22;40782;47.264;11.330;2022-12-13T02:04:50;-8.20;99.90
29547;DHT22;40782;47.264;11.330;2022-12-13T02:07:21;-8.20;99.90
29547;DHT22;40782;47.264;11.330;2022-12-13T02:09:51;-8.10;99.90
29547;DHT22;40782;47.264;11.330;2022-12-13T02:12:20;-7.90;99.90
29547;DHT22;40782;47.264;11.330;2022-12-13T02:14:47;-7.90;99.90
29547;DHT22;40782;47.264;11.330;2022-12-13T02:17:19;-8.10;99.90
29547;DHT22;40782;47.264;11.330;2022-12-13T02:20:18;-7.90;99.90
29547;DHT22;40782;47.264;11.330;2022-12-13T02:23:06;-7.90;99.90
29547;DHT22;40782;47.264;11.330;2022-12-13T02:25:53;-7.90;99.90
29547;DHT22;40782;47.264;11.330;2022-12-13T02:28:42;-7.90;99.90
29547;DHT22;40782;47.264;11.330;2022-12-13T02:31:15;-8.00;99.90
29547;DHT22;40782;47.264;11.330;2022-12-13T02:33:49;-8.00;99.90
29547;DHT22;40782;47.264;11.330;2022-12-13T02:36:23;-8.00;99.90
29547;DHT22;40782;47.264;11.330;2022-12-13T02:38:58;-8.00;99.90
29547;DHT22;40782;47.264;11.330;2022-12-13T02:41:32;-7.90;99.90
29547;DHT22;40782;47.264;11.330;2022-12-13T02:44:06;-8.10;99.90
29547;DHT22;40782;47.264;11.330;2022-12-13T02:46:40;-8.00;99.90
29547;DHT22;40782;47.264;11.330;2022-12-13T02:49:09;-8.10;99.90
29547;DHT22;40782;47.264;11.330;2022-12-13T02:51:38;-8.10;99.90
29547;DHT22;40782;47.264;11.330;2022-12-13T02:54:05;-8.20;99.90
29547;DHT22;40782;47.264;11.330;2022-12-13T02:56:33;-8.20;99.90
29547;DHT22;40782;47.264;11.330;2022-12-13T02:59:04;-8.20;99.90
29547;DHT22;40782;47.264;11.330;2022-12-13T03:01:48;-8.30;99.90
29547;DHT22;40782;47.264;11.330;2022-12-13T03:04:25;-8.40;99.90
29547;DHT22;40782;47.264;11.330;2022-12-13T03:07:00;-8.50;99.90
29547;DHT22;40782;47.264;11.330;2022-12-13T03:09:49;-8.50;99.90
29547;DHT22;40782;47.264;11.330;2022-12-13T03:12:28;-8.50;99.90
29547;DHT22;40782;47.264;11.330;2022-12-13T03:15:15;-8.60;99.90
29547;DHT22;40782;47.264;11.330;2022-12-13T03:17:48;-8.60;99.90
29547;DHT22;40782;47.264;11.330;2022-12-13T03:20:18;-8.60;99.90
29547;DHT22;40782;47.264;11.330;2022-12-13T03:22:48;-8.50;99.90
29547;DHT22;40782;47.264;11.330;2022-12-13T03:25:16;-8.40;99.90
29547;DHT22;40782;47.264;11.330;2022-12-13T03:27:43;-8.50;99.90
29547;DHT22;40782;47.264;11.330;2022-12-13T03:30:11;-8.40;99.90
29547;DHT22;40782;47.264;11.330;2022-12-13T03:32:39;-8.40;99.90
29547;DHT22;40782;47.264;11.330;2022-12-13T03:35:08;-8.30;99.90
29547;DHT22;40782;47.264;11.330;2022-12-13T03:37:35;-8.30;99.90
29547;DHT22;40782;47.264;11.330;2022-12-13T03:40:04;-8.40;99.90
29547;DHT22;40782;47.264;11.330;2022-12-13T03:42:31;-8.40;99.90
29547;DHT22;40782;47.264;11.330;2022-12-13T03:44:59;-8.40;99.90
29547;DHT22;40782;47.264;11.330;2022-12-13T03:47:26;-8.40;99.90
29547;DHT22;40782;47.264;11.330;2022-12-13T03:49:53;-8.60;99.90
29547;DHT22;40782;47.264;11.330;2022-12-13T03:52:22;-8.70;99.90
29547;DHT22;40782;47.264;11.330;2022-12-13T03:54:49;-8.60;99.90
29547;DHT22;40782;47.264;11.330;2022-12-13T03:57:16;-8.50;99.90
29547;DHT22;40782;47.264;11.330;2022-12-13T03:59:43;-8.40;99.90
29547;DHT22;40782;47.264;11.330;2022-12-13T04:02:10;-8.50;99.90
29547;DHT22;40782;47.264;11.330;2022-12-13T04:04:37;-8.60;99.90
29547;DHT22;40782;47.264;11.330;2022-12-13T04:07:05;-8.60;99.90
29547;DHT22;40782;47.264;11.330;2022-12-13T04:09:33;-8.60;99.90
29547;DHT22;40782;47.264;11.330;2022-12-13T04:12:00;-8.50;99.90
29547;DHT22;40782;47.264;11.330;2022-12-13T04:14:45;-8.50;99.90
29547;DHT22;40782;47.264;11.330;2022-12-13T04:17:12;-8.40;99.90
29547;DHT22;40782;47.264;11.330;2022-12-13T04:19:39;-8.60;99.90
29547;DHT22;40782;47.264;11.330;2022-12-13T04:22:07;-8.60;99.90
29547;DHT22;40782;47.264;11.330;2022-12-13T04:24:35;-8.70;99.90
29547;DHT22;40782;47.264;11.330;2022-12-13T04:27:03;-8.70;99.90
29547;DHT22;40782;47.264;11.330;2022-12-13T04:29:30;-8.70;99.90
29547;DHT22;40782;47.264;11.330;2022-12-13T04:31:57;-8.60;99.90
29547;DHT22;40782;47.264;11.330;2022-12-13T04:34:24;-8.50;99.90
29547;DHT22;40782;47.264;11.330;2022-12-13T04:36:51;-8.50;99.90
29547;DHT22;40782;47.264;11.330;2022-12-13T04:39:18;-8.60;99.90
29547;DHT22;40782;47.264;11.330;2022-12-13T04:41:47;-8.70;99.90
29547;DHT22;40782;47.264;11.330;2022-12-13T04:44:14;-8.70;99.90
29547;DHT22;40782;47.264;11.330;2022-12-13T04:46:41;-8.60;99.90
29547;DHT22;40782;47.264;11.330;2022-12-13T04:49:08;-8.60;99.90
29547;DHT22;40782;47.264;11.330;2022-12-13T04:51:36;-8.80;99.90
29547;DHT22;40782;47.264;11.330;2022-12-13T04:54:03;-8.80;99.90
29547;DHT22;40782;47.264;11.330;2022-12-13T04:56:30;-8.70;99.90
29547;DHT22;40782;47.264;11.330;2022-12-13T04:58:59;-8.50;99.90
29547;DHT22;40782;47.264;11.330;2022-12-13T05:01:26;-8.50;99.90
29547;DHT22;40782;47.264;11.330;2022-12-13T05:03:53;-8.60;99.90
29547;DHT22;40782;47.264;11.330;2022-12-13T05:06:20;-8.80;99.90
29547;DHT22;40782;47.264;11.330;2022-12-13T05:08:47;-8.90;99.90
29547;DHT22;40782;47.264;11.330;2022-12-13T05:11:14;-9.00;99.90
29547;DHT22;40782;47.264;11.330;2022-12-13T05:13:41;-8.90;99.90
29547;DHT22;40782;47.264;11.330;2022-12-13T05:16:11;-8.80;99.90
29547;DHT22;40782;47.264;11.330;2022-12-13T05:18:40;-8.80;99.90
29547;DHT22;40782;47.264;11.330;2022-12-13T05:21:09;-8.80;99.90
29547;DHT22;40782;47.264;11.330;2022-12-13T05:23:37;-8.70;99.90
29547;DHT22;40782;47.264;11.330;2022-12-13T05:26:05;-8.60;99.90
29547;DHT22;40782;47.264;11.330;2022-12-13T05:28:33;-8.60;99.90
29547;DHT22;40782;47.264;11.330;2022-12-13T05:31:07;-8.60;99.90
29547;DHT22;40782;47.264;11.330;2022-12-13T05:33:35;-8.50;99.90
29547;DHT22;40782;47.264;11.330;2022-12-13T05:36:03;-8.60;99.90
29547;DHT22;40782;47.264;11.330;2022-12-13T05:38:31;-8.60;99.90
29547;DHT22;40782;47.264;11.330;2022-12-13T05:40:58;-8.60;99.90
29547;DHT22;40782;47.264;11.330;2022-12-13T05:43:26;-8.50;99.90
29547;DHT22;40782;47.264;11.330;2022-12-13T05:45:53;-8.60;99.90
29547;DHT22;40782;47.264;11.330;2022-12-13T05:48:20;-8.70;99.90
29547;DHT22;40782;47.264;11.330;2022-12-13T05:50:49;-8.80;99.90
29547;DHT22;40782;47.264;11.330;2022-12-13T05:53:16;-8.90;99.90
29547;DHT22;40782;47.264;11.330;2022-12-13T05:55:43;-9.00;99.90
29547;DHT22;40782;47.264;11.330;2022-12-13T05:58:11;-9.00;99.90
29547;DHT22;40782;47.264;11.330;2022-12-13T06:00:40;-9.00;99.90
29547;DHT22;40782;47.264;11.330;2022-12-13T06:03:07;-8.90;99.90
29547;DHT22;40782;47.264;11.330;2022-12-13T06:05:34;-8.90;99.90
29547;DHT22;40782;47.264;11.330;2022-12-13T06:08:03;-8.90;99.90
29547;DHT22;40782;47.264;11.330;2022-12-13T06:10:30;-8.90;99.90
29547;DHT22;40782;47.264;11.330;2022-12-13T06:12:57;-9.00;99.90
29547;DHT22;40782;47.264;11.330;2022-12-13T06:15:25;-9.00;99.90
29547;DHT22;40782;47.264;11.330;2022-12-13T06:17:52;-9.00;99.90
29547;DHT22;40782;47.264;11.330;2022-12-13T06:20:19;-9.00;99.90
29547;DHT22;40782;47.264;11.330;2022-12-13T06:22:46;-9.00;99.90
29547;DHT22;40782;47.264;11.330;2022-12-13T06:25:15;-8.90;99.90
29547;DHT22;40782;47.264;11.330;2022-12-13T06:27:42;-9.00;99.90
29547;DHT22;40782;47.264;11.330;2022-12-13T06:30:10;-9.00;99.90
29547;DHT22;40782;47.264;11.330;2022-12-13T06:32:38;-9.10;99.90
29547;DHT22;40782;47.264;11.330;2022-12-13T06:35:05;-9.10;99.90
29547;DHT22;40782;47.264;11.330;2022-12-13T06:37:32;-9.20;99.90
29547;DHT22;40782;47.264;11.330;2022-12-13T06:40:00;-9.20;99.90
29547;DHT22;40782;47.264;11.330;2022-12-13T06:42:28;-9.20;99.90
29547;DHT22;40782;47.264;11.330;2022-12-13T06:44:56;-9.20;99.90
29547;DHT22;40782;47.264;11.330;2022-12-13T06:47:23;-9.20;99.90
29547;DHT22;40782;47.264;11.330;2022-12-13T06:49:50;-9.20;99.90
29547;DHT22;40782;47.264;11.330;2022-12-13T06:52:18;-9.30;99.90
29547;DHT22;40782;47.264;11.330;2022-12-13T06:54:45;-9.30;99.90
29547;DHT22;40782;47.264;11.330;2022-12-13T06:57:12;-9.20;99.90
29547;DHT22;40782;47.264;11.330;2022-12-13T06:59:41;-9.20;99.90
29547;DHT22;40782;47.264;11.330;2022-12-13T07:02:08;-9.10;99.90
29547;DHT22;40782;47.264;11.330;2022-12-13T07:04:35;-9.00;99.90
29547;DHT22;40782;47.264;11.330;2022-12-13T07:07:02;-9.00;99.90
29547;DHT22;40782;47.264;11.330;2022-12-13T07:09:30;-9.00;99.90
29547;DHT22;40782;47.264;11.330;2022-12-13T07:11:58;-8.90;99.90
29547;DHT22;40782;47.264;11.330;2022-12-13T07:14:27;-8.90;99.90
29547;DHT22;40782;47.264;11.330;2022-12-13T07:16:57;-8.80;99.90
29547;DHT22;40782;47.264;11.330;2022-12-13T07:19:25;-8.90;99.90
29547;DHT22;40782;47.264;11.330;2022-12-13T07:21:52;-8.90;99.90
29547;DHT22;40782;47.264;11.330;2022-12-13T07:24:19;-8.80;99.90
29547;DHT22;40782;47.264;11.330;2022-12-13T07:26:46;-8.70;99.90
29547;DHT22;40782;47.264;11.330;2022-12-13T07:29:13;-8.60;99.90
29547;DHT22;40782;47.264;11.330;2022-12-13T07:31:41;-8.60;99.90
29547;DHT22;40782;47.264;11.330;2022-12-13T07:34:09;-8.50;99.90
29547;DHT22;40782;47.264;11.330;2022-12-13T07:36:36;-8.70;99.90
29547;DHT22;40782;47.264;11.330;2022-12-13T07:39:04;-8.80;99.90
29547;DHT22;40782;47.264;11.330;2022-12-13T07:41:31;-8.70;99.90
29547;DHT22;40782;47.264;11.330;2022-12-13T07:43:58;-8.70;99.90
29547;DHT22;40782;47.264;11.330;2022-12-13T07:46:25;-8.70;99.90
29547;DHT22;40782;47.264;11.330;2022-12-13T07:48:53;-8.60;99.90
29547;DHT22;40782;47.264;11.330;2022-12-13T07:51:21;-8.50;99.90
29547;DHT22;40782;47.264;11.330;2022-12-13T07:53:49;-8.30;99.90
29547;DHT22;40782;47.264;11.330;2022-12-13T07:56:16;-8.40;99.90
29547;DHT22;40782;47.264;11.330;2022-12-13T07:58:43;-8.50;99.90
29547;DHT22;40782;47.264;11.330;2022-12-13T08:01:13;-8.30;99.90
29547;DHT22;40782;47.264;11.330;2022-12-13T08:03:40;-8.30;99.90
29547;DHT22;40782;47.264;11.330;2022-12-13T08:06:08;-8.20;99.90
29547;DHT22;40782;47.264;11.330;2022-12-13T08:08:38;-8.20;99.90
29547;DHT22;40782;47.264;11.330;2022-12-13T08:11:07;-8.10;99.90
29547;DHT22;40782;47.264;11.330;2022-12-13T08:13:35;-8.00;99.90
29547;DHT22;40782;47.264;11.330;2022-12-13T08:16:05;-8.10;99.90
29547;DHT22;40782;47.264;11.330;2022-12-13T08:18:33;-8.20;99.90
29547;DHT22;40782;47.264;11.330;2022-12-13T08:21:02;-8.20;99.90
29547;DHT22;40782;47.264;11.330;2022-12-13T08:23:30;-8.20;99.90
29547;DHT22;40782;47.264;11.330;2022-12-13T08:26:00;-8.10;99.90
29547;DHT22;40782;47.264;11.330;2022-12-13T08:28:27;-8.20;99.90
29547;DHT22;40782;47.264;11.330;2022-12-13T08:31:00;-8.20;99.90
29547;DHT22;40782;47.264;11.330;2022-12-13T08:33:28;-8.20;99.90
29547;DHT22;40782;47.264;11.330;2022-12-13T08:35:55;-8.20;99.90
29547;DHT22;40782;47.264;11.330;2022-12-13T08:38:23;-8.10;99.90
29547;DHT22;40782;47.264;11.330;2022-12-13T08:40:50;-7.90;99.90
29547;DHT22;40782;47.264;11.330;2022-12-13T08:43:19;-7.80;99.90
29547;DHT22;40782;47.264;11.330;2022-12-13T08:45:49;-7.70;99.90
29547;DHT22;40782;47.264;11.330;2022-12-13T08:48:16;-7.70;99.90
29547;DHT22;40782;47.264;11.330;2022-12-13T08:50:43;-7.70;99.90
29547;DHT22;40782;47.264;11.330;2022-12-13T08:53:10;-7.60;99.90
29547;DHT22;40782;47.264;11.330;2022-12-13T08:55:37;-7.50;99.90
29547;DHT22;40782;47.264;11.330;2022-12-13T08:58:05;-7.40;99.90
29547;DHT22;40782;47.264;11.330;2022-12-13T09:00:35;-7.30;99.90
29547;DHT22;40782;47.264;11.330;2022-12-13T09:03:03;-7.20;99.90
29547;DHT22;40782;47.264;11.330;2022-12-13T09:05:30;-7.00;99.90
29547;DHT22;40782;47.264;11.330;2022-12-13T09:07:58;-7.00;99.90
29547;DHT22;40782;47.264;11.330;2022-12-13T09:10:27;-6.80;99.90
29547;DHT22;40782;47.264;11.330;2022-12-13T09:12:55;-6.70;99.90
29547;DHT22;40782;47.264;11.330;2022-12-13T09:15:24;-6.50;99.90
29547;DHT22;40782;47.264;11.330;2022-12-13T09:17:53;-6.40;99.90
29547;DHT22;40782;47.264;11.330;2022-12-13T09:20:20;-6.20;99.90
29547;DHT22;40782;47.264;11.330;2022-12-13T09:22:48;-6.10;99.90
29547;DHT22;40782;47.264;11.330;2022-12-13T09:25:15;-6.00;99.90
29547;DHT22;40782;47.264;11.330;2022-12-13T09:27:42;-6.00;99.90
29547;DHT22;40782;47.264;11.330;2022-12-13T09:30:10;-5.90;99.90
29547;DHT22;40782;47.264;11.330;2022-12-13T09:32:39;-5.80;99.90
29547;DHT22;40782;47.264;11.330;2022-12-13T09:35:08;-5.70;99.90
29547;DHT22;40782;47.264;11.330;2022-12-13T09:37:35;-5.60;99.90
29547;DHT22;40782;47.264;11.330;2022-12-13T09:40:04;-5.50;99.90
29547;DHT22;40782;47.264;11.330;2022-12-13T09:42:33;-5.20;99.90
29547;DHT22;40782;47.264;11.330;2022-12-13T09:45:03;-5.00;99.90
29547;DHT22;40782;47.264;11.330;2022-12-13T09:47:33;-4.70;99.90
29547;DHT22;40782;47.264;11.330;2022-12-13T09:50:05;-4.50;99.90
29547;DHT22;40782;47.264;11.330;2022-12-13T09:52:37;-4.60;99.90
29547;DHT22;40782;47.264;11.330;2022-12-13T09:55:17;-4.80;99.90
29547;DHT22;40782;47.264;11.330;2022-12-13T09:57:45;-4.80;99.90
29547;DHT22;40782;47.264;11.330;2022-12-13T10:00:15;-5.00;99.90
29547;DHT22;40782;47.264;11.330;2022-12-13T10:02:45;-5.10;99.90
29547;DHT22;40782;47.264;11.330;2022-12-13T10:05:19;-5.10;99.90
29547;DHT22;40782;47.264;11.330;2022-12-13T10:07:49;-5.20;99.90
29547;DHT22;40782;47.264;11.330;2022-12-13T10:10:17;-5.20;99.90
29547;DHT22;40782;47.264;11.330;2022-12-13T10:12:47;-5.20;99.90
29547;DHT22;40782;47.264;11.330;2022-12-13T10:15:18;-5.20;99.90
29547;DHT22;40782;47.264;11.330;2022-12-13T10:17:47;-5.00;99.90
29547;DHT22;40782;47.264;11.330;2022-12-13T10:20:18;-4.90;99.90
29547;DHT22;40782;47.264;11.330;2022-12-13T10:22:45;-4.70;99.90
29547;DHT22;40782;47.264;11.330;2022-12-13T10:25:14;-4.70;99.90
29547;DHT22;40782;47.264;11.330;2022-12-13T10:27:44;-4.70;99.90
29547;DHT22;40782;47.264;11.330;2022-12-13T10:30:13;-4.70;99.90
29547;DHT22;40782;47.264;11.330;2022-12-13T10:32:46;-4.70;99.90
29547;DHT22;40782;47.264;11.330;2022-12-13T10:35:23;-4.60;99.90
29547;DHT22;40782;47.264;11.330;2022-12-13T10:37:51;-4.40;99.90
29547;DHT22;40782;47.264;11.330;2022-12-13T10:40:30;-4.30;99.90
29547;DHT22;40782;47.264;11.330;2022-12-13T10:43:11;-4.30;99.90
29547;DHT22;40782;47.264;11.330;2022-12-13T10:45:40;-4.30;99.90
29547;DHT22;40782;47.264;11.330;2022-12-13T10:48:18;-4.20;99.90
29547;DHT22;40782;47.264;11.330;2022-12-13T10:50:59;-4.30;99.90
29547;DHT22;40782;47.264;11.330;2022-12-13T10:53:30;-4.30;99.90
29547;DHT22;40782;47.264;11.330;2022-12-13T10:56:00;-4.20;99.90
29547;DHT22;40782;47.264;11.330;2022-12-13T10:58:37;-4.20;99.90
29547;DHT22;40782;47.264;11.330;2022-12-13T11:01:20;-4.20;99.90
29547;DHT22;40782;47.264;11.330;2022-12-13T11:03:59;-4.10;99.90
29547;DHT22;40782;47.264;11.330;2022-12-13T11:06:27;-4.00;99.90
29547;DHT22;40782;47.264;11.330;2022-12-13T11:08:55;-3.90;99.90
29547;DHT22;40782;47.264;11.330;2022-12-13T11:11:29;-3.90;99.90
29547;DHT22;40782;47.264;11.330;2022-12-13T11:13:57;-3.90;99.90
29547;DHT22;40782;47.264;11.330;2022-12-13T11:16:31;-3.80;99.90
29547;DHT22;40782;47.264;11.330;2022-12-13T11:19:02;-3.70;99.90
29547;DHT22;40782;47.264;11.330;2022-12-13T11:21:33;-3.70;99.90
29547;DHT22;40782;47.264;11.330;2022-12-13T11:24:02;-3.70;99.90
29547;DHT22;40782;47.264;11.330;2022-12-13T11:26:35;-3.60;99.90
29547;DHT22;40782;47.264;11.330;2022-12-13T11:29:19;-3.60;99.90
29547;DHT22;40782;47.264;11.330;2022-12-13T11:32:02;-3.60;99.90
29547;DHT22;40782;47.264;11.330;2022-12-13T11:34:38;-3.50;99.90
29547;DHT22;40782;47.264;11.330;2022-12-13T11:37:16;-3.50;99.90
29547;DHT22;40782;47.264;11.330;2022-12-13T11:39:49;-3.50;99.90
29547;DHT22;40782;47.264;11.330;2022-12-13T11:42:24;-3.40;99.90
29547;DHT22;40782;47.264;11.330;2022-12-13T11:45:01;-3.40;99.90
29547;DHT22;40782;47.264;11.330;2022-12-13T11:47:34;-3.50;99.90
29547;DHT22;40782;47.264;11.330;2022-12-13T11:50:05;-3.40;99.90
29547;DHT22;40782;47.264;11.330;2022-12-13T11:52:43;-3.50;99.90
29547;DHT22;40782;47.264;11.330;2022-12-13T11:55:16;-3.50;99.90
29547;DHT22;40782;47.264;11.330;2022-12-13T11:57:50;-3.40;99.90
29547;DHT22;40782;47.264;11.330;2022-12-13T12:00:28;-3.50;99.90
29547;DHT22;40782;47.264;11.330;2022-12-13T12:03:05;-3.40;99.90
29547;DHT22;40782;47.264;11.330;2022-12-13T12:05:35;-3.30;99.90
29547;DHT22;40782;47.264;11.330;2022-12-13T12:08:08;-3.20;99.90
29547;DHT22;40782;47.264;11.330;2022-12-13T12:10:40;-3.30;99.90
29547;DHT22;40782;47.264;11.330;2022-12-13T12:13:15;-3.20;99.90
29547;DHT22;40782;47.264;11.330;2022-12-13T12:15:48;-3.10;99.90
29547;DHT22;40782;47.264;11.330;2022-12-13T12:18:16;-3.00;99.90
29547;DHT22;40782;47.264;11.330;2022-12-13T12:20:53;-3.00;99.90
29547;DHT22;40782;47.264;11.330;2022-12-13T12:23:31;-2.90;99.90
29547;DHT22;40782;47.264;11.330;2022-12-13T12:26:05;-2.80;99.90
29547;DHT22;40782;47.264;11.330;2022-12-13T12:28:55;-2.80;99.90
29547;DHT22;40782;47.264;11.330;2022-12-13T12:31:29;-2.90;99.90
29547;DHT22;40782;47.264;11.330;2022-12-13T12:34:02;-2.80;99.90
29547;DHT22;40782;47.264;11.330;2022-12-13T12:36:45;-2.80;99.90
29547;DHT22;40782;47.264;11.330;2022-12-13T12:39:30;-2.80;99.90
29547;DHT22;40782;47.264;11.330;2022-12-13T12:42:13;-2.90;99.90
29547;DHT22;40782;47.264;11.330;2022-12-13T12:44:58;-2.80;99.90
29547;DHT22;40782;47.264;11.330;2022-12-13T12:47:37;-2.90;99.90
29547;DHT22;40782;47.264;11.330;2022-12-13T12:50:28;-2.80;99.90
29547;DHT22;40782;47.264;11.330;2022-12-13T12:53:02;-2.70;99.90
29547;DHT22;40782;47.264;11.330;2022-12-13T12:55:41;-2.50;99.90
29547;DHT22;40782;47.264;11.330;2022-12-13T12:58:22;-2.40;99.90
29547;DHT22;40782;47.264;11.330;2022-12-13T13:01:03;-2.30;99.90
29547;DHT22;40782;47.264;11.330;2022-12-13T13:03:35;-2.30;99.90
29547;DHT22;40782;47.264;11.330;2022-12-13T13:06:09;-2.10;99.90
29547;DHT22;40782;47.264;11.330;2022-12-13T13:08:42;-1.90;99.90
29547;DHT22;40782;47.264;11.330;2022-12-13T13:11:11;-1.90;99.90
29547;DHT22;40782;47.264;11.330;2022-12-13T13:13:44;-2.00;99.90
29547;DHT22;40782;47.264;11.330;2022-12-13T13:16:31;-2.00;99.90
29547;DHT22;40782;47.264;11.330;2022-12-13T13:18:59;-1.90;99.90
29547;DHT22;40782;47.264;11.330;2022-12-13T13:21:45;-2.10;99.90
29547;DHT22;40782;47.264;11.330;2022-12-13T13:24:23;-2.00;99.90
29547;DHT22;40782;47.264;11.330;2022-12-13T13:26:53;-2.00;99.90
29547;DHT22;40782;47.264;11.330;2022-12-13T13:29:32;-2.10;99.90
29547;DHT22;40782;47.264;11.330;2022-12-13T13:34:46;-2.20;99.90
29547;DHT22;40782;47.264;11.330;2022-12-13T13:37:27;-2.20;99.90
29547;DHT22;40782;47.264;11.330;2022-12-13T13:39:59;-2.20;99.90
29547;DHT22;40782;47.264;11.330;2022-12-13T13:42:27;-2.30;99.90
29547;DHT22;40782;47.264;11.330;2022-12-13T13:45:19;-2.30;99.90
29547;DHT22;40782;47.264;11.330;2022-12-13T13:53:59;-2.30;99.90
29547;DHT22;40782;47.264;11.330;2022-12-13T14:00:07;-2.20;99.90
29547;DHT22;40782;47.264;11.330;2022-12-13T14:06:04;-2.40;99.90
29547;DHT22;40782;47.264;11.330;2022-12-13T14:08:44;-2.40;99.90
29547;DHT22;40782;47.264;11.330;2022-12-13T14:14:43;-2.50;99.90
29547;DHT22;40782;47.264;11.330;2022-12-13T14:20:44;-2.60;99.90
29547;DHT22;40782;47.264;11.330;2022-12-13T14:23:22;-2.60;99.90
29547;DHT22;40782;47.264;11.330;2022-12-13T14:28:47;-2.70;99.90
29547;DHT22;40782;47.264;11.330;2022-12-13T14:31:19;-2.70;99.90
29547;DHT22;40782;47.264;11.330;2022-12-13T14:33:48;-2.70;99.90
29547;DHT22;40782;47.264;11.330;2022-12-13T14:36:21;-2.70;99.90
29547;DHT22;40782;47.264;11.330;2022-12-13T14:38:59;-2.70;99.90
29547;DHT22;40782;47.264;11.330;2022-12-13T14:41:27;-2.70;99.90
29547;DHT22;40782;47.264;11.330;2022-12-13T14:43:55;-2.70;99.90
29547;DHT22;40782;47.264;11.330;2022-12-13T14:46:22;-2.70;99.90
29547;DHT22;40782;47.264;11.330;2022-12-13T14:48:50;-2.70;99.90
29547;DHT22;40782;47.264;11.330;2022-12-13T14:51:30;-2.70;99.90
29547;DHT22;40782;47.264;11.330;2022-12-13T14:53:59;-2.80;99.90
29547;DHT22;40782;47.264;11.330;2022-12-13T14:56:27;-2.70;99.90
29547;DHT22;40782;47.264;11.330;2022-12-13T14:58:55;-2.70;99.90
29547;DHT22;40782;47.264;11.330;2022-12-13T15:01:28;-2.70;99.90
29547;DHT22;40782;47.264;11.330;2022-12-13T15:04:17;-2.80;99.90
29547;DHT22;40782;47.264;11.330;2022-12-13T15:06:45;-2.80;99.90
29547;DHT22;40782;47.264;11.330;2022-12-13T15:09:16;-2.80;99.90
29547;DHT22;40782;47.264;11.330;2022-12-13T15:11:44;-2.80;99.90
29547;DHT22;40782;47.264;11.330;2022-12-13T15:14:14;-2.80;99.90
29547;DHT22;40782;47.264;11.330;2022-12-13T15:16:47;-2.80;99.90
29547;DHT22;40782;47.264;11.330;2022-12-13T15:19:17;-2.80;99.90
29547;DHT22;40782;47.264;11.330;2022-12-13T15:21:53;-2.80;99.90
29547;DHT22;40782;47.264;11.330;2022-12-13T15:24:25;-2.90;99.90
29547;DHT22;40782;47.264;11.330;2022-12-13T15:26:54;-2.90;99.90
29547;DHT22;40782;47.264;11.330;2022-12-13T15:29:24;-2.90;99.90
29547;DHT22;40782;47.264;11.330;2022-12-13T15:31:51;-2.90;99.90
29547;DHT22;40782;47.264;11.330;2022-12-13T15:34:22;-2.90;99.90
29547;DHT22;40782;47.264;11.330;2022-12-13T15:36:50;-2.90;99.90
29547;DHT22;40782;47.264;11.330;2022-12-13T15:39:17;-2.90;99.90
29547;DHT22;40782;47.264;11.330;2022-12-13T15:41:47;-2.90;99.90
29547;DHT22;40782;47.264;11.330;2022-12-13T15:44:18;-2.90;99.90
29547;DHT22;40782;47.264;11.330;2022-12-13T15:46:48;-2.90;99.90
29547;DHT22;40782;47.264;11.330;2022-12-13T15:49:21;-2.90;99.90
29547;DHT22;40782;47.264;11.330;2022-12-13T15:51:55;-2.90;99.90
29547;DHT22;40782;47.264;11.330;2022-12-13T15:54:23;-3.00;99.90
29547;DHT22;40782;47.264;11.330;2022-12-13T15:57:02;-3.00;99.90
29547;DHT22;40782;47.264;11.330;2022-12-13T15:59:31;-3.00;99.90
29547;DHT22;40782;47.264;11.330;2022-12-13T16:02:00;-3.00;99.90
29547;DHT22;40782;47.264;11.330;2022-12-13T16:04:30;-2.90;99.90